createdAt,value
2023-02-13T00:00:55.791Z,26.07
2023-02-13T00:03:28.527Z,25.95
2023-02-13T00:06:00.453Z,26.27
2023-02-13T00:08:31.789Z,26.07
2023-02-13T00:11:02.737Z,24.50
2023-02-13T00:13:35.475Z,25.00
2023-02-13T00:16:06.660Z,22.27
2023-02-13T00:18:38.925Z,20.62
2023-02-13T00:21:12.641Z,21.15
2023-02-13T00:23:43.102Z,20.12
2023-02-13T00:26:15.912Z,20.30
2023-02-13T00:28:46.983Z,20.05
2023-02-13T00:31:20.572Z,20.45
2023-02-13T00:33:52.840Z,18.05
2023-02-13T00:36:25.301Z,17.87
2023-02-13T00:38:56.710Z,17.15
2023-02-13T00:41:27.184Z,14.18
2023-02-13T00:43:57.681Z,13.38
2023-02-13T00:46:28.286Z,12.70
2023-02-13T00:48:58.713Z,11.88
2023-02-13T00:51:29.246Z,10.82
2023-02-13T00:54:01.308Z,9.80
2023-02-13T00:56:31.825Z,8.88
2023-02-13T00:59:02.331Z,9.83
2023-02-13T01:01:32.815Z,8.23
2023-02-13T01:04:03.504Z,7.08
2023-02-13T01:06:33.927Z,5.22
2023-02-13T01:09:05.562Z,6.40
2023-02-13T01:11:36.152Z,6.60
2023-02-13T01:14:06.815Z,8.38
2023-02-13T01:16:37.269Z,6.87
2023-02-13T01:19:07.723Z,8.25
2023-02-13T01:21:38.281Z,5.30
2023-02-13T01:24:08.879Z,5.50
2023-02-13T01:26:40.888Z,4.92
2023-02-13T01:29:13.627Z,7.67
2023-02-13T01:31:44.348Z,5.00
2023-02-13T01:34:14.920Z,4.70
2023-02-13T01:36:45.462Z,5.37
2023-02-13T01:39:16.083Z,7.62
2023-02-13T01:41:46.596Z,4.53
2023-02-13T01:44:48.987Z,6.90
2023-02-13T01:47:28.536Z,5.60
2023-02-13T01:50:07.889Z,4.53
2023-02-13T01:52:41.374Z,8.73
2023-02-13T01:55:13.145Z,6.25
2023-02-13T01:57:48.204Z,3.60
2023-02-13T02:00:19.514Z,6.00
2023-02-13T02:02:55.903Z,5.90
2023-02-13T02:05:28.687Z,4.90
2023-02-13T02:08:04.101Z,5.12
2023-02-13T02:10:35.597Z,4.78
2023-02-13T02:13:09.178Z,4.17
2023-02-13T02:15:40.000Z,4.72
2023-02-13T02:18:25.010Z,4.60
2023-02-13T02:21:04.624Z,5.92
2023-02-13T02:23:56.228Z,6.73
2023-02-13T02:26:38.645Z,6.00
2023-02-13T02:29:27.387Z,7.58
2023-02-13T02:32:12.858Z,6.70
2023-02-13T02:34:46.650Z,6.20
2023-02-13T02:37:23.013Z,5.72
2023-02-13T02:40:22.452Z,7.50
2023-02-13T02:43:25.476Z,6.37
2023-02-13T02:45:59.292Z,7.83
2023-02-13T02:48:59.919Z,9.15
2023-02-13T02:51:45.932Z,7.47
2023-02-13T02:54:55.630Z,9.63
2023-02-13T02:57:30.838Z,7.92
2023-02-13T03:00:19.370Z,9.65
2023-02-13T03:03:07.768Z,9.50
2023-02-13T03:05:59.213Z,8.90
2023-02-13T03:08:49.086Z,10.72
2023-02-13T03:11:39.007Z,9.80
2023-02-13T03:14:12.175Z,9.38
2023-02-13T03:17:00.199Z,12.05
2023-02-13T03:20:07.294Z,10.13
2023-02-13T03:22:56.650Z,11.35
2023-02-13T03:25:37.229Z,9.60
2023-02-13T03:28:49.765Z,11.87
2023-02-13T03:31:24.988Z,12.23
2023-02-13T03:34:07.513Z,13.22
2023-02-13T03:37:04.764Z,13.78
2023-02-13T03:39:47.136Z,13.00
2023-02-13T03:42:30.158Z,13.08
2023-02-13T03:45:24.532Z,13.22
2023-02-13T03:47:58.007Z,13.60
2023-02-13T03:50:30.037Z,12.58
2023-02-13T03:53:09.593Z,11.57
2023-02-13T03:56:04.015Z,13.23
2023-02-13T03:58:55.536Z,14.80
2023-02-13T04:01:31.450Z,15.05
2023-02-13T04:04:25.066Z,13.05
2023-02-13T04:07:02.763Z,14.05
2023-02-13T04:09:35.746Z,16.55
2023-02-13T04:12:24.789Z,13.60
2023-02-13T04:15:01.117Z,13.22
2023-02-13T04:17:37.616Z,14.30
2023-02-13T04:20:09.736Z,12.35
2023-02-13T04:22:47.764Z,16.80
2023-02-13T04:25:21.402Z,14.60
2023-02-13T04:27:52.136Z,16.80
2023-02-13T04:30:24.170Z,17.02
2023-02-13T04:32:54.570Z,14.78
2023-02-13T04:35:25.262Z,15.08
2023-02-13T04:37:55.679Z,14.78
2023-02-13T04:40:26.464Z,14.83
2023-02-13T04:42:57.449Z,16.60
2023-02-13T04:45:28.284Z,15.08
2023-02-13T04:47:59.151Z,17.70
2023-02-13T04:50:29.672Z,14.07
2023-02-13T04:53:00.186Z,13.30
2023-02-13T04:55:30.811Z,13.20
2023-02-13T04:58:01.219Z,13.30
2023-02-13T05:00:32.005Z,13.98
2023-02-13T05:03:07.688Z,12.78
2023-02-13T05:05:38.780Z,12.18
2023-02-13T05:08:10.096Z,13.60
2023-02-13T05:10:40.812Z,12.43
2023-02-13T05:13:12.191Z,13.95
2023-02-13T05:15:44.384Z,13.30
2023-02-13T05:18:15.507Z,14.25
2023-02-13T05:20:47.921Z,14.05
2023-02-13T05:23:24.450Z,13.32
2023-02-13T05:25:54.784Z,13.30
2023-02-13T05:28:43.826Z,12.07
2023-02-13T05:31:14.701Z,13.58
2023-02-13T05:33:45.273Z,11.18
2023-02-13T05:36:15.836Z,13.43
2023-02-13T05:38:46.393Z,13.25
2023-02-13T05:41:17.121Z,13.45
2023-02-13T05:43:47.828Z,12.35
2023-02-13T05:46:18.495Z,12.30
2023-02-13T05:48:48.986Z,12.25
2023-02-13T05:51:20.590Z,11.68
2023-02-13T05:53:51.346Z,11.22
2023-02-13T05:56:33.808Z,10.35
2023-02-13T05:59:04.573Z,12.68
2023-02-13T06:01:35.119Z,8.58
2023-02-13T06:04:07.677Z,10.35
2023-02-13T06:06:38.341Z,11.93
2023-02-13T06:09:08.838Z,11.20
2023-02-13T06:11:39.414Z,9.43
2023-02-13T06:14:09.980Z,8.65
2023-02-13T06:16:40.672Z,8.65
2023-02-13T06:19:11.244Z,9.08
2023-02-13T06:21:43.436Z,10.20
2023-02-13T06:24:14.183Z,10.25
2023-02-13T06:26:44.675Z,10.30
2023-02-13T06:29:15.093Z,11.45
2023-02-13T06:31:47.665Z,12.60
2023-02-13T06:34:18.130Z,10.98
2023-02-13T06:36:49.554Z,10.75
2023-02-13T06:39:20.377Z,10.10
2023-02-13T06:41:50.899Z,8.00
2023-02-13T06:44:22.504Z,8.30
2023-02-13T06:46:53.280Z,9.28
2023-02-13T06:49:25.265Z,8.50
2023-02-13T06:51:55.880Z,8.98
2023-02-13T06:54:41.026Z,7.60
2023-02-13T06:56:58.569Z,7.85
2023-02-13T06:59:29.195Z,8.00
2023-02-13T07:01:59.591Z,8.43
2023-02-13T07:04:30.285Z,8.15
2023-02-13T07:07:00.747Z,7.95
2023-02-13T07:09:34.024Z,9.20
2023-02-13T07:12:06.511Z,9.45
2023-02-13T07:14:37.089Z,10.25
2023-02-13T07:17:07.880Z,9.93
2023-02-13T07:19:39.060Z,9.50
2023-02-13T07:22:09.506Z,8.33
2023-02-13T07:24:39.985Z,8.78
2023-02-13T07:27:10.516Z,6.58
2023-02-13T07:29:42.004Z,8.55
2023-02-13T07:32:13.529Z,9.13
2023-02-13T07:34:59.579Z,10.03
2023-02-13T07:37:16.556Z,12.65
2023-02-13T07:39:47.148Z,9.60
2023-02-13T07:42:17.712Z,9.30
2023-02-13T07:44:48.385Z,8.95
2023-02-13T07:47:20.525Z,10.20
2023-02-13T07:49:54.386Z,8.78
2023-02-13T07:52:25.017Z,9.48
2023-02-13T07:54:55.697Z,8.35
2023-02-13T07:57:26.338Z,10.82
2023-02-13T07:59:58.697Z,8.88
2023-02-13T08:02:29.558Z,10.68
2023-02-13T08:05:00.113Z,10.18
2023-02-13T08:07:32.275Z,9.38
2023-02-13T08:10:21.218Z,9.48
2023-02-13T08:12:53.560Z,9.80
2023-02-13T08:15:24.172Z,9.98
2023-02-13T08:17:54.804Z,10.15
2023-02-13T08:20:25.719Z,10.40
2023-02-13T08:22:58.728Z,9.97
2023-02-13T08:25:30.002Z,8.73
2023-02-13T08:28:01.264Z,10.30
2023-02-13T08:30:37.403Z,11.05
2023-02-13T08:33:07.876Z,10.82
2023-02-13T08:35:39.249Z,9.50
2023-02-13T08:38:11.272Z,10.03
2023-02-13T08:40:42.200Z,10.40
2023-02-13T08:43:14.029Z,9.90
2023-02-13T08:45:45.330Z,10.68
2023-02-13T08:48:18.177Z,10.25
2023-02-13T08:50:49.117Z,10.58
2023-02-13T08:53:19.966Z,9.33
2023-02-13T08:55:55.901Z,9.50
2023-02-13T08:58:29.148Z,9.55
2023-02-13T09:00:59.619Z,9.18
2023-02-13T09:03:33.522Z,9.48
2023-02-13T09:06:04.840Z,8.48
2023-02-13T09:08:38.759Z,10.58
2023-02-13T09:11:13.721Z,9.18
2023-02-13T09:13:44.548Z,8.95
2023-02-13T09:16:17.856Z,9.85
2023-02-13T09:18:49.961Z,9.23
2023-02-13T09:21:23.818Z,9.30
2023-02-13T09:23:55.396Z,9.93
2023-02-13T09:26:27.338Z,10.23
2023-02-13T09:28:57.929Z,9.40
2023-02-13T09:31:30.411Z,11.93
2023-02-13T09:34:00.892Z,10.43
2023-02-13T09:36:31.352Z,12.68
2023-02-13T09:39:03.366Z,14.03
2023-02-13T09:41:40.464Z,16.55
2023-02-13T09:44:38.053Z,13.20
2023-02-13T09:47:23.808Z,13.95
2023-02-13T09:50:03.132Z,13.35
2023-02-13T09:52:38.377Z,15.05
2023-02-13T09:55:26.594Z,13.05
2023-02-13T09:58:12.020Z,13.32
2023-02-13T10:00:45.193Z,15.05
2023-02-13T10:03:24.276Z,18.17
2023-02-13T10:06:30.993Z,17.40
2023-02-13T10:09:07.287Z,14.63
2023-02-13T10:11:47.823Z,17.55
2023-02-13T10:14:23.065Z,14.23
2023-02-13T10:17:01.046Z,13.50
2023-02-13T10:19:55.398Z,17.10
2023-02-13T10:22:44.838Z,13.83
2023-02-13T10:25:27.676Z,14.13
2023-02-13T10:28:15.938Z,15.20
2023-02-13T10:30:55.927Z,12.53
2023-02-13T10:33:38.381Z,12.07
2023-02-13T10:36:21.645Z,14.58
2023-02-13T10:39:03.771Z,13.78
2023-02-13T10:41:37.566Z,19.15
2023-02-13T10:44:16.947Z,26.45
2023-02-13T10:47:17.551Z,13.83
2023-02-13T10:49:59.684Z,20.72
2023-02-13T10:52:39.051Z,13.85
2023-02-13T10:55:29.507Z,22.73
2023-02-13T10:58:18.361Z,23.05
2023-02-13T11:00:58.160Z,14.78
2023-02-13T11:03:30.916Z,15.15
2023-02-13T11:06:03.716Z,15.15
2023-02-13T11:08:38.723Z,15.00
2023-02-13T11:11:36.948Z,14.50
2023-02-13T11:14:16.432Z,15.05
2023-02-13T11:17:09.939Z,15.48
2023-02-13T11:19:43.370Z,16.85
2023-02-13T11:22:16.877Z,15.13
2023-02-13T11:24:56.123Z,14.83
2023-02-13T11:27:29.578Z,17.15
2023-02-13T11:30:05.819Z,14.07
2023-02-13T11:32:38.330Z,17.17
2023-02-13T11:35:30.473Z,16.95
2023-02-13T11:38:14.406Z,16.73
2023-02-13T11:40:47.912Z,17.50
2023-02-13T11:43:37.219Z,18.02
2023-02-13T11:46:25.724Z,17.25
2023-02-13T11:49:02.309Z,18.77
2023-02-13T11:51:47.885Z,17.48
2023-02-13T11:54:32.930Z,18.25
2023-02-13T11:57:23.653Z,17.47
2023-02-13T11:59:54.804Z,16.97
2023-02-13T12:02:35.109Z,18.40
2023-02-13T12:05:20.714Z,18.80
2023-02-13T12:07:51.778Z,17.75
2023-02-13T12:10:25.323Z,18.12
2023-02-13T12:12:59.511Z,16.12
2023-02-13T12:15:36.100Z,18.05
2023-02-13T12:18:19.462Z,21.45
2023-02-13T12:21:18.456Z,16.73
2023-02-13T12:24:19.187Z,19.23
2023-02-13T12:27:02.406Z,17.02
2023-02-13T12:29:41.618Z,18.92
2023-02-13T12:32:21.055Z,20.00
2023-02-13T12:35:20.448Z,22.20
2023-02-13T12:38:17.426Z,18.48
2023-02-13T12:41:10.676Z,18.55
2023-02-13T12:44:16.653Z,18.02
2023-02-13T12:46:54.530Z,19.32
2023-02-13T12:49:48.223Z,18.77
2023-02-13T12:52:38.949Z,18.40
2023-02-13T12:55:38.083Z,18.73
2023-02-13T12:58:19.343Z,19.67
2023-02-13T13:01:25.361Z,19.42
2023-02-13T13:04:02.786Z,19.15
2023-02-13T13:06:58.332Z,17.37
2023-02-13T13:09:46.543Z,18.77
2023-02-13T13:12:29.329Z,24.52
2023-02-13T13:15:08.394Z,17.95
2023-02-13T13:17:49.267Z,21.45
2023-02-13T13:20:47.120Z,19.65
2023-02-13T13:23:24.956Z,19.80
2023-02-13T13:26:11.629Z,21.17
2023-02-13T13:28:45.659Z,17.57
2023-02-13T13:31:18.616Z,19.20
2023-02-13T13:33:49.780Z,20.92
2023-02-13T13:36:48.010Z,19.85
2023-02-13T13:39:41.259Z,18.00
2023-02-13T13:42:37.076Z,20.17
2023-02-13T13:45:27.326Z,20.48
2023-02-13T13:48:10.365Z,20.85
2023-02-13T13:50:46.584Z,21.90
2023-02-13T13:53:23.584Z,20.88
2023-02-13T13:55:59.847Z,19.77
2023-02-13T13:58:39.556Z,19.42
2023-02-13T14:01:25.084Z,21.77
2023-02-13T14:03:58.659Z,18.95
2023-02-13T14:06:50.292Z,21.15
2023-02-13T14:09:43.013Z,20.02
2023-02-13T14:12:32.237Z,21.35
2023-02-13T14:15:04.311Z,19.73
2023-02-13T14:17:52.693Z,21.12
2023-02-13T14:20:41.065Z,19.37
2023-02-13T14:23:32.937Z,19.57
2023-02-13T14:26:24.982Z,19.20
2023-02-13T14:28:58.601Z,18.67
2023-02-13T14:31:40.727Z,19.98
2023-02-13T14:34:18.376Z,21.52
2023-02-13T14:36:53.387Z,21.75
2023-02-13T14:39:31.340Z,19.40
2023-02-13T14:42:04.685Z,19.87
2023-02-13T14:44:59.749Z,20.17
2023-02-13T14:47:39.609Z,21.45
2023-02-13T14:50:18.771Z,19.30
2023-02-13T14:52:53.779Z,19.70
2023-02-13T14:55:27.869Z,20.70
2023-02-13T14:58:04.223Z,20.00
2023-02-13T15:00:43.612Z,21.05
2023-02-13T15:03:23.076Z,20.17
2023-02-13T15:06:00.570Z,19.57
2023-02-13T15:08:37.398Z,20.20
2023-02-13T15:11:11.117Z,21.05
2023-02-13T15:13:42.432Z,21.42
2023-02-13T15:16:15.256Z,23.47
2023-02-13T15:18:53.306Z,19.15
2023-02-13T15:21:28.235Z,18.42
2023-02-13T15:23:58.981Z,19.52
2023-02-13T15:26:30.526Z,21.00
2023-02-13T15:29:11.333Z,19.95
2023-02-13T15:31:41.716Z,19.32
2023-02-13T15:34:31.190Z,20.72
2023-02-13T15:37:06.804Z,20.25
2023-02-13T15:39:38.546Z,20.45
2023-02-13T15:42:12.972Z,20.80
2023-02-13T15:44:46.530Z,23.32
2023-02-13T15:47:26.490Z,20.57
2023-02-13T15:49:57.541Z,20.68
2023-02-13T15:52:38.870Z,24.35
2023-02-13T15:55:22.575Z,21.90
2023-02-13T15:57:55.524Z,21.68
2023-02-13T16:00:32.943Z,22.30
2023-02-13T16:03:06.481Z,21.77
2023-02-13T16:05:41.354Z,21.05
2023-02-13T16:08:30.264Z,19.77
2023-02-13T16:11:22.025Z,22.15
2023-02-13T16:14:07.293Z,18.57
2023-02-13T16:16:46.725Z,20.68
2023-02-13T16:19:35.849Z,20.75
2023-02-13T16:22:18.242Z,21.02
2023-02-13T16:24:54.176Z,19.95
2023-02-13T16:27:28.151Z,20.60
2023-02-13T16:30:02.597Z,20.52
2023-02-13T16:32:38.222Z,20.05
2023-02-13T16:35:31.278Z,19.87
2023-02-13T16:38:03.219Z,20.37
2023-02-13T16:40:41.957Z,21.52
2023-02-13T16:43:41.759Z,20.52
2023-02-13T16:46:19.126Z,22.22
2023-02-13T16:49:02.094Z,22.45
2023-02-13T16:51:35.691Z,23.02
2023-02-13T16:54:21.120Z,23.35
2023-02-13T16:56:57.571Z,21.75
2023-02-13T16:59:31.269Z,21.45
2023-02-13T17:02:16.915Z,19.32
2023-02-13T17:04:59.890Z,20.43
2023-02-13T17:07:32.523Z,20.65
2023-02-13T17:10:08.091Z,19.82
2023-02-13T17:12:39.832Z,22.13
2023-02-13T17:15:13.202Z,21.00
2023-02-13T17:17:47.122Z,22.22
2023-02-13T17:20:23.732Z,21.45
2023-02-13T17:22:56.678Z,27.00
2023-02-13T17:25:30.238Z,21.80
2023-02-13T17:28:05.457Z,23.02
2023-02-13T17:30:36.073Z,21.73
2023-02-13T17:33:09.330Z,23.20
2023-02-13T17:35:40.412Z,19.98
2023-02-13T17:38:11.664Z,22.48
2023-02-13T17:40:43.565Z,19.27
2023-02-13T17:43:18.038Z,22.13
2023-02-13T17:45:50.624Z,23.83
2023-02-13T17:48:21.431Z,20.95
2023-02-13T17:50:52.520Z,22.93
2023-02-13T17:53:30.684Z,20.90
2023-02-13T17:56:01.288Z,22.35
2023-02-13T17:58:31.874Z,22.20
2023-02-13T18:01:03.236Z,23.67
2023-02-13T18:03:34.602Z,20.82
2023-02-13T18:06:05.270Z,21.35
2023-02-13T18:08:35.819Z,20.70
2023-02-13T18:11:09.426Z,21.93
2023-02-13T18:13:41.920Z,21.50
2023-02-13T18:16:12.994Z,27.73
2023-02-13T18:18:43.743Z,32.58
2023-02-13T18:21:14.171Z,34.40
2023-02-13T18:23:44.847Z,33.02
2023-02-13T18:26:15.302Z,26.95
2023-02-13T18:28:50.629Z,26.70
2023-02-13T18:31:22.921Z,25.05
2023-02-13T18:33:56.518Z,28.23
2023-02-13T18:36:27.977Z,22.00
2023-02-13T18:38:59.743Z,24.67
2023-02-13T18:41:30.537Z,22.02
2023-02-13T18:44:01.262Z,23.62
2023-02-13T18:46:32.128Z,21.30
2023-02-13T18:49:03.154Z,21.90
2023-02-13T18:51:35.551Z,24.15
2023-02-13T18:54:06.762Z,28.07
2023-02-13T18:56:37.777Z,24.82
2023-02-13T18:59:08.455Z,23.73
2023-02-13T19:01:39.204Z,23.62
2023-02-13T19:04:10.878Z,24.87
2023-02-13T19:06:45.176Z,27.62
2023-02-13T19:09:18.775Z,26.25
2023-02-13T19:11:49.990Z,24.45
2023-02-13T19:14:26.522Z,24.02
2023-02-13T19:16:57.296Z,27.05
2023-02-13T19:19:27.961Z,21.95
2023-02-13T19:21:58.514Z,22.52
2023-02-13T19:24:29.104Z,22.17
2023-02-13T19:27:00.798Z,24.05
2023-02-13T19:29:31.196Z,25.45
2023-02-13T19:32:01.844Z,24.65
2023-02-13T19:34:32.472Z,26.17
2023-02-13T19:37:03.147Z,23.22
2023-02-13T19:39:33.596Z,24.60
2023-02-13T19:42:04.226Z,25.23
2023-02-13T19:44:35.875Z,23.25
2023-02-13T19:47:07.814Z,23.30
2023-02-13T19:49:38.716Z,22.32
2023-02-13T19:52:09.306Z,22.75
2023-02-13T19:54:41.858Z,23.60
2023-02-13T19:57:14.015Z,25.90
2023-02-13T19:59:46.462Z,26.20
2023-02-13T20:02:19.214Z,24.27
2023-02-13T20:04:50.497Z,24.50
2023-02-13T20:07:21.091Z,28.52
2023-02-13T20:09:51.547Z,27.10
2023-02-13T20:12:24.674Z,26.90
2023-02-13T20:14:58.054Z,27.35
2023-02-13T20:17:30.480Z,26.55
2023-02-13T20:20:01.075Z,28.57
2023-02-13T20:22:33.672Z,25.97
2023-02-13T20:25:05.840Z,28.80
2023-02-13T20:27:39.077Z,26.10
2023-02-13T20:30:14.727Z,27.25
2023-02-13T20:32:47.633Z,26.17
2023-02-13T20:35:19.558Z,28.62
2023-02-13T20:37:50.061Z,30.75
2023-02-13T20:40:20.871Z,33.38
2023-02-13T20:42:51.390Z,27.52
2023-02-13T20:45:24.687Z,28.52
2023-02-13T20:47:55.221Z,26.95
2023-02-13T20:50:26.643Z,31.40
2023-02-13T20:52:59.536Z,30.08
2023-02-13T20:55:29.999Z,30.00
2023-02-13T20:58:02.373Z,26.60
2023-02-13T21:00:35.847Z,29.42
2023-02-13T21:03:07.812Z,27.60
2023-02-13T21:05:38.786Z,30.48
2023-02-13T21:08:12.790Z,28.50
2023-02-13T21:10:43.391Z,27.32
2023-02-13T21:13:13.980Z,31.37
2023-02-13T21:15:47.595Z,26.73
2023-02-13T21:18:19.793Z,27.48
2023-02-13T21:20:52.739Z,30.00
2023-02-13T21:23:26.060Z,31.23
2023-02-13T21:25:57.443Z,33.67
2023-02-13T21:28:29.572Z,27.98
2023-02-13T21:31:02.044Z,30.15
2023-02-13T21:33:32.720Z,30.77
2023-02-13T21:36:05.938Z,29.10
2023-02-13T21:38:39.168Z,28.23
2023-02-13T21:41:15.829Z,28.07
2023-02-13T21:43:49.189Z,24.82
2023-02-13T21:46:23.588Z,28.85
2023-02-13T21:48:56.954Z,28.38
2023-02-13T21:51:31.583Z,28.75
2023-02-13T21:54:08.567Z,29.90
2023-02-13T21:56:41.569Z,29.17
2023-02-13T21:59:18.146Z,30.12
2023-02-13T22:01:52.642Z,28.40
2023-02-13T22:04:23.202Z,25.75
2023-02-13T22:06:55.485Z,29.42
2023-02-13T22:09:27.974Z,28.73
2023-02-13T22:12:03.840Z,28.42
2023-02-13T22:14:37.094Z,31.82
2023-02-13T22:17:16.049Z,27.87
2023-02-13T22:19:44.361Z,30.90
2023-02-13T22:22:17.932Z,31.37
2023-02-13T22:24:51.776Z,28.25
2023-02-13T22:27:22.685Z,29.63
2023-02-13T22:29:58.182Z,29.02
2023-02-13T22:32:31.457Z,30.03
2023-02-13T22:35:03.335Z,30.27
2023-02-13T22:37:35.650Z,30.77
2023-02-13T22:40:07.491Z,30.67
2023-02-13T22:42:37.960Z,27.30
2023-02-13T22:45:09.125Z,30.48
2023-02-13T22:47:39.597Z,32.83
2023-02-13T22:50:10.720Z,28.23
2023-02-13T22:52:41.576Z,25.87
2023-02-13T22:55:12.392Z,32.28
2023-02-13T22:57:42.988Z,28.02
2023-02-13T23:00:14.954Z,29.53
2023-02-13T23:02:45.544Z,29.67
2023-02-13T23:05:17.995Z,30.85
2023-02-13T23:07:49.129Z,34.67
2023-02-13T23:10:20.256Z,28.57
2023-02-13T23:12:50.683Z,31.40
2023-02-13T23:15:21.647Z,30.55
2023-02-13T23:18:10.531Z,30.17
2023-02-13T23:20:45.573Z,32.58
2023-02-13T23:23:18.798Z,30.65
2023-02-13T23:25:49.598Z,28.50
2023-02-13T23:28:20.187Z,30.32
2023-02-13T23:30:51.826Z,32.75
2023-02-13T23:33:22.434Z,33.58
2023-02-13T23:35:53.089Z,31.57
2023-02-13T23:38:24.603Z,30.40
2023-02-13T23:40:56.010Z,30.37
2023-02-13T23:43:28.018Z,29.83
2023-02-13T23:45:58.574Z,29.30
2023-02-13T23:48:29.217Z,29.65
2023-02-13T23:51:01.961Z,29.90
2023-02-13T23:53:34.104Z,27.67
2023-02-13T23:56:05.811Z,30.02
2023-02-13T23:58:36.410Z,32.20
